Dobrin — AEDY — position and weather

sailwx.info

Track history (hours):
 
Tides and Currents Weather Stations Pressure Air Temp Water Temp Dewpoint Dewpoint Depression Visibility Wind Speed Wind Dir Waves Ship Positions

Dobrin

Last reported at 2017-Oct-20 11:54 UTC. Time now 2017-Oct-22 13:31 UTC.
Position N 40°41' W 074°04'.

Length 22 m; draft 2 m.

MMSI: 366999422.

Date/timePositionNaut miles runAvg speedWind from/ knotsBaromVisibWave heightAir tempDewpointWater temp
2017-Oct-20 11:54N 40°41' W 074°04'0 0.0
2017-Oct-20 11:30N 40°41' W 074°04'0 0.0
2017-Oct-20 11:00N 40°41' W 074°04'0 0.0
2017-Oct-20 10:30N 40°41' W 074°04'0 0.0
2017-Oct-20 10:00N 40°41' W 074°04'0 0.0
2017-Oct-20 09:30N 40°41' W 074°04'0 0.0
2017-Oct-20 09:00N 40°41' W 074°04'0 0.0
2017-Oct-20 08:30N 40°41' W 074°04'0 0.0
2017-Oct-20 08:00N 40°41' W 074°04'0 0.0
2017-Oct-20 07:30N 40°41' W 074°04'0 0.0
2017-Oct-20 07:00N 40°41' W 074°04'0 0.0
2017-Oct-20 06:30N 40°41' W 074°04'0 0.0
2017-Oct-20 06:00N 40°41' W 074°04'0 0.0
2017-Oct-20 05:30N 40°41' W 074°04'0 0.0
2017-Oct-20 05:00N 40°41' W 074°04'0 0.0
2017-Oct-20 04:30N 40°41' W 074°04'0 0.0
2017-Oct-20 04:00N 40°41' W 074°04'0 0.0
2017-Oct-20 03:30N 40°41' W 074°04'0 0.0
2017-Oct-20 03:00N 40°41' W 074°04'0 0.0
2017-Oct-20 02:30N 40°41' W 074°04'0 0.0
2017-Oct-20 02:00N 40°41' W 074°04'0 0.0
2017-Oct-20 01:30N 40°41' W 074°04'0 0.0
2017-Oct-20 01:00N 40°41' W 074°04'0 0.0
2017-Oct-20 00:30N 40°41' W 074°04'0 0.0
2017-Oct-20 00:00N 40°41' W 074°04'0 0.0
2017-Oct-19 23:30N 40°41' W 074°04'0 0.0
2017-Oct-19 23:00N 40°41' W 074°04'0 0.0
2017-Oct-19 22:30N 40°41' W 074°04'0 0.0
2017-Oct-19 22:00N 40°41' W 074°04'0 0.0
2017-Oct-19 21:30N 40°41' W 074°04'0 0.0
2017-Oct-19 21:00N 40°41' W 074°04'0 0.0
2017-Oct-19 20:30N 40°41' W 074°04'2 3.1
2017-Oct-19 20:00N 40°40' W 074°03'5 9.9
2017-Oct-19 19:30N 40°35' W 074°02'611.3
2017-Oct-19 18:58N 40°29' W 074°03'2 4.6
2017-Oct-19 18:29N 40°29' W 073°60'1 0.9
2017-Oct-19 17:57N 40°29' W 074°00'0 0.8
2017-Oct-19 17:30N 40°29' W 073°60'0 0.1
2017-Oct-19 16:59N 40°29' W 073°60'0 0.7
2017-Oct-19 16:30N 40°29' W 073°59'0 0.2
2017-Oct-19 15:55N 40°29' W 073°60'0 0.6
2017-Oct-19 15:30N 40°29' W 074°00'2 4.2
2017-Oct-19 15:00N 40°30' W 074°03'612.4
2017-Oct-19 14:30N 40°36' W 074°02'4 8.3
2017-Oct-19 14:00N 40°40' W 074°03'1 2.4
2017-Oct-19 13:30N 40°41' W 074°04'0 0.0
2017-Oct-18 19:00N 40°41' W 074°04'510.5
2017-Oct-18 18:30N 40°36' W 074°03'611.3
2017-Oct-18 18:00N 40°30' W 074°03'1 1.4
2017-Oct-18 17:30N 40°29' W 074°03'0 0.3
2017-Oct-18 16:59N 40°29' W 074°03'0 0.2
2017-Oct-18 16:30N 40°29' W 074°03'1 1.5
2017-Oct-18 16:00N 40°30' W 074°03'0 0.2
2017-Oct-18 15:30N 40°30' W 074°03'1 1.9
2017-Oct-18 15:00N 40°31' W 074°03'10 0.5
2017-Oct-17 19:22N 40°40' W 074°04'512.6
2017-Oct-17 19:00N 40°36' W 074°02'611.3
2017-Oct-17 18:30N 40°30' W 074°03'0 0.2
2017-Oct-17 18:00N 40°30' W 074°03'  
Track history (hours):
 
Tides and Currents Weather Stations Pressure Air Temp Water Temp Dewpoint Dewpoint Depression Visibility Wind Speed Wind Dir Waves Ship Positions

Dobrin

Last reported at 2017-Oct-20 11:54 UTC. Time now 2017-Oct-22 13:31 UTC.
Position N 40°41' W 074°04'.

Length 22 m; draft 2 m.

MMSI: 366999422.

Date/timePositionNaut miles runAvg speedWind from/ knotsBaromVisibWave heightAir tempDewpointWater temp
2017-Oct-20 11:54N 40°41' W 074°04'0 0.0
2017-Oct-20 11:30N 40°41' W 074°04'0 0.0
2017-Oct-20 11:00N 40°41' W 074°04'0 0.0
2017-Oct-20 10:30N 40°41' W 074°04'0 0.0
2017-Oct-20 10:00N 40°41' W 074°04'0 0.0
2017-Oct-20 09:30N 40°41' W 074°04'0 0.0
2017-Oct-20 09:00N 40°41' W 074°04'0 0.0
2017-Oct-20 08:30N 40°41' W 074°04'0 0.0
2017-Oct-20 08:00N 40°41' W 074°04'0 0.0
2017-Oct-20 07:30N 40°41' W 074°04'0 0.0
2017-Oct-20 07:00N 40°41' W 074°04'0 0.0
2017-Oct-20 06:30N 40°41' W 074°04'0 0.0
2017-Oct-20 06:00N 40°41' W 074°04'0 0.0
2017-Oct-20 05:30N 40°41' W 074°04'0 0.0
2017-Oct-20 05:00N 40°41' W 074°04'0 0.0
2017-Oct-20 04:30N 40°41' W 074°04'0 0.0
2017-Oct-20 04:00N 40°41' W 074°04'0 0.0
2017-Oct-20 03:30N 40°41' W 074°04'0 0.0
2017-Oct-20 03:00N 40°41' W 074°04'0 0.0
2017-Oct-20 02:30N 40°41' W 074°04'0 0.0
2017-Oct-20 02:00N 40°41' W 074°04'0 0.0
2017-Oct-20 01:30N 40°41' W 074°04'0 0.0
2017-Oct-20 01:00N 40°41' W 074°04'0 0.0
2017-Oct-20 00:30N 40°41' W 074°04'0 0.0
2017-Oct-20 00:00N 40°41' W 074°04'0 0.0
2017-Oct-19 23:30N 40°41' W 074°04'0 0.0
2017-Oct-19 23:00N 40°41' W 074°04'0 0.0
2017-Oct-19 22:30N 40°41' W 074°04'0 0.0
2017-Oct-19 22:00N 40°41' W 074°04'0 0.0
2017-Oct-19 21:30N 40°41' W 074°04'0 0.0
2017-Oct-19 21:00N 40°41' W 074°04'0 0.0
2017-Oct-19 20:30N 40°41' W 074°04'2 3.1
2017-Oct-19 20:00N 40°40' W 074°03'5 9.9
2017-Oct-19 19:30N 40°35' W 074°02'611.3
2017-Oct-19 18:58N 40°29' W 074°03'2 4.6
2017-Oct-19 18:29N 40°29' W 073°60'1 0.9
2017-Oct-19 17:57N 40°29' W 074°00'0 0.8
2017-Oct-19 17:30N 40°29' W 073°60'0 0.1
2017-Oct-19 16:59N 40°29' W 073°60'0 0.7
2017-Oct-19 16:30N 40°29' W 073°59'0 0.2
2017-Oct-19 15:55N 40°29' W 073°60'0 0.6
2017-Oct-19 15:30N 40°29' W 074°00'2 4.2
2017-Oct-19 15:00N 40°30' W 074°03'612.4
2017-Oct-19 14:30N 40°36' W 074°02'4 8.3
2017-Oct-19 14:00N 40°40' W 074°03'1 2.4
2017-Oct-19 13:30N 40°41' W 074°04'0 0.0
2017-Oct-18 19:00N 40°41' W 074°04'510.5
2017-Oct-18 18:30N 40°36' W 074°03'611.3
2017-Oct-18 18:00N 40°30' W 074°03'1 1.4
2017-Oct-18 17:30N 40°29' W 074°03'0 0.3
2017-Oct-18 16:59N 40°29' W 074°03'0 0.2
2017-Oct-18 16:30N 40°29' W 074°03'1 1.5
2017-Oct-18 16:00N 40°30' W 074°03'0 0.2
2017-Oct-18 15:30N 40°30' W 074°03'1 1.9
2017-Oct-18 15:00N 40°31' W 074°03'10 0.5
2017-Oct-17 19:22N 40°40' W 074°04'512.6
2017-Oct-17 19:00N 40°36' W 074°02'611.3
2017-Oct-17 18:30N 40°30' W 074°03'0 0.2
2017-Oct-17 18:00N 40°30' W 074°03'  

Dump ship's entire track history